createdAt,value
2017-09-23T00:00:18.520Z,34.33
2017-09-23T00:01:24.642Z,29.50
2017-09-23T00:02:31.641Z,28.42
2017-09-23T00:03:37.708Z,27.42
2017-09-23T00:04:45.798Z,29.15
2017-09-23T00:05:51.668Z,28.42
2017-09-23T00:06:57.748Z,27.83
2017-09-23T00:08:03.843Z,28.40
2017-09-23T00:09:09.992Z,28.05
2017-09-23T00:10:16.981Z,28.23
2017-09-23T00:11:23.078Z,29.15
2017-09-23T00:12:29.986Z,27.42
2017-09-23T00:13:36.187Z,29.80
2017-09-23T00:14:42.448Z,28.55
2017-09-23T00:15:49.087Z,27.40
2017-09-23T00:16:55.667Z,28.00
2017-09-23T00:18:02.409Z,25.65
2017-09-23T00:19:08.513Z,26.23
2017-09-23T00:20:14.616Z,28.15
2017-09-23T00:21:20.830Z,26.65
2017-09-23T00:22:26.914Z,24.87
2017-09-23T00:23:33.017Z,26.30
2017-09-23T00:24:39.121Z,26.08
2017-09-23T00:25:45.230Z,28.00
2017-09-23T00:26:51.345Z,27.73
2017-09-23T00:27:58.776Z,29.63
2017-09-23T00:29:05.414Z,28.75
2017-09-23T00:30:11.885Z,29.30
2017-09-23T00:31:18.939Z,30.65
2017-09-23T00:32:25.138Z,28.48
2017-09-23T00:33:31.634Z,30.05
2017-09-23T00:34:37.817Z,30.15
2017-09-23T00:35:44.502Z,30.37
2017-09-23T00:36:50.632Z,28.95
2017-09-23T00:37:56.722Z,28.40
2017-09-23T00:39:02.609Z,29.00
2017-09-23T00:40:08.477Z,30.58
2017-09-23T00:41:14.550Z,29.42
2017-09-23T00:42:20.098Z,27.42
2017-09-23T00:43:26.220Z,27.73
2017-09-23T00:44:32.325Z,28.45
2017-09-23T00:45:38.394Z,28.20
2017-09-23T00:46:44.501Z,30.52
2017-09-23T00:47:50.584Z,29.48
2017-09-23T00:48:56.779Z,29.75
2017-09-23T00:50:02.880Z,28.00
2017-09-23T00:51:08.287Z,29.25
2017-09-23T00:52:13.629Z,28.40
2017-09-23T00:53:19.023Z,28.15
2017-09-23T00:54:24.576Z,28.02
2017-09-23T00:55:30.323Z,28.05
2017-09-23T00:56:36.410Z,26.23
2017-09-23T00:57:42.653Z,26.52
2017-09-23T00:58:48.775Z,30.35
2017-09-23T00:59:54.953Z,31.00
2017-09-23T01:01:01.042Z,29.77
2017-09-23T01:02:09.107Z,29.92
2017-09-23T01:03:17.013Z,29.10
2017-09-23T01:04:23.092Z,27.05
2017-09-23T01:05:28.955Z,26.50
2017-09-23T01:06:34.455Z,26.10
2017-09-23T01:07:40.546Z,27.65
2017-09-23T01:08:46.664Z,26.48
2017-09-23T01:09:52.722Z,28.62
2017-09-23T01:10:58.422Z,28.40
2017-09-23T01:12:03.780Z,26.85
2017-09-23T01:13:11.378Z,27.33
2017-09-23T01:14:17.627Z,27.52
2017-09-23T01:15:23.332Z,25.98
2017-09-23T01:16:29.391Z,27.67
2017-09-23T01:17:35.447Z,26.48
2017-09-23T01:18:41.736Z,26.40
2017-09-23T01:19:47.487Z,26.25
2017-09-23T01:20:52.839Z,28.45
2017-09-23T01:21:58.230Z,29.52
2017-09-23T01:23:03.960Z,28.65
2017-09-23T01:24:09.351Z,28.00
2017-09-23T01:25:14.919Z,27.27
2017-09-23T01:26:20.431Z,26.62
2017-09-23T01:27:26.495Z,26.35
2017-09-23T01:28:32.396Z,25.90
2017-09-23T01:29:38.160Z,26.05
2017-09-23T01:30:43.717Z,25.95
2017-09-23T01:31:50.864Z,27.23
2017-09-23T01:32:57.146Z,29.35
2017-09-23T01:34:03.518Z,24.75
2017-09-23T01:35:09.597Z,26.92
2017-09-23T01:36:15.518Z,27.45
2017-09-23T01:37:21.605Z,25.52
2017-09-23T01:38:27.649Z,28.38
2017-09-23T01:39:33.712Z,28.20
2017-09-23T01:40:39.770Z,27.05
2017-09-23T01:41:45.872Z,27.92
2017-09-23T01:42:51.922Z,27.20
2017-09-23T01:43:58.686Z,28.83
2017-09-23T01:45:04.771Z,30.55
2017-09-23T01:46:10.848Z,28.70
2017-09-23T01:47:16.954Z,29.92
2017-09-23T01:48:23.135Z,30.30
2017-09-23T01:49:29.379Z,28.80
2017-09-23T01:50:35.455Z,28.17
2017-09-23T01:51:41.520Z,28.27
2017-09-23T01:52:47.600Z,29.33
2017-09-23T01:53:53.675Z,28.12
2017-09-23T01:54:59.747Z,27.52
2017-09-23T01:56:05.832Z,28.10
2017-09-23T01:57:11.955Z,29.10
2017-09-23T01:58:18.132Z,29.40
2017-09-23T01:59:24.003Z,29.63
2017-09-23T02:00:30.067Z,25.12
2017-09-23T02:01:35.950Z,26.05
2017-09-23T02:02:42.066Z,30.30
2017-09-23T02:03:47.946Z,28.40
2017-09-23T02:04:54.344Z,28.70
2017-09-23T02:06:00.722Z,29.85
2017-09-23T02:07:06.823Z,31.90
2017-09-23T02:08:12.958Z,27.95
2017-09-23T02:09:19.022Z,28.80
2017-09-23T02:10:25.193Z,27.73
2017-09-23T02:11:31.265Z,29.42
2017-09-23T02:12:37.332Z,27.55
2017-09-23T02:13:43.537Z,27.90
2017-09-23T02:14:49.603Z,28.95
2017-09-23T02:15:55.686Z,28.52
2017-09-23T02:17:01.792Z,29.10
2017-09-23T02:18:07.870Z,29.60
2017-09-23T02:19:13.944Z,32.60
2017-09-23T02:20:20.018Z,32.10
2017-09-23T02:21:26.167Z,28.98
2017-09-23T02:22:32.230Z,29.58
2017-09-23T02:23:38.310Z,27.77
2017-09-23T02:24:44.447Z,30.35
2017-09-23T02:25:50.709Z,30.35
2017-09-23T02:26:57.668Z,28.00
2017-09-23T02:28:03.841Z,29.17
2017-09-23T02:29:09.936Z,30.77
2017-09-23T02:30:16.062Z,31.50
2017-09-23T02:31:22.190Z,31.77
2017-09-23T02:32:28.063Z,31.70
2017-09-23T02:33:34.154Z,31.30
2017-09-23T02:34:40.282Z,30.17
2017-09-23T02:35:46.544Z,29.98
2017-09-23T02:36:52.806Z,32.55
2017-09-23T02:37:59.652Z,32.50
2017-09-23T02:39:05.003Z,31.70
2017-09-23T02:40:11.117Z,32.42
2017-09-23T02:41:17.203Z,33.10
2017-09-23T02:42:23.351Z,34.83
2017-09-23T02:43:29.825Z,31.12
2017-09-23T02:44:36.109Z,35.40
2017-09-23T02:45:42.286Z,35.25
2017-09-23T02:46:48.371Z,37.53
2017-09-23T02:47:54.176Z,36.10
2017-09-23T02:49:00.262Z,31.55
2017-09-23T02:50:05.970Z,31.55
2017-09-23T02:51:12.119Z,33.97
2017-09-23T02:52:18.199Z,32.42
2017-09-23T02:53:24.318Z,29.83
2017-09-23T02:54:30.400Z,30.15
2017-09-23T02:55:36.486Z,30.02
2017-09-23T02:56:42.418Z,31.12
2017-09-23T02:57:48.517Z,30.55
2017-09-23T02:58:54.621Z,31.17
2017-09-23T03:00:00.703Z,29.90
2017-09-23T03:01:06.579Z,30.08
2017-09-23T03:02:12.902Z,29.83
2017-09-23T03:03:19.072Z,29.58
2017-09-23T03:04:25.268Z,29.75
2017-09-23T03:05:31.372Z,29.48
2017-09-23T03:06:37.491Z,29.87
2017-09-23T03:07:43.599Z,28.65
2017-09-23T03:08:49.678Z,29.20
2017-09-23T03:09:55.765Z,29.40
2017-09-23T03:11:01.876Z,30.70
2017-09-23T03:12:07.968Z,30.60
2017-09-23T03:13:14.100Z,31.80
2017-09-23T03:14:20.183Z,31.65
2017-09-23T03:15:26.327Z,35.88
2017-09-23T03:16:32.216Z,35.70
2017-09-23T03:17:38.310Z,34.90
2017-09-23T03:18:44.488Z,32.08
2017-09-23T03:19:50.652Z,32.58
2017-09-23T03:20:56.840Z,30.40
2017-09-23T03:22:02.960Z,28.95
2017-09-23T03:23:09.071Z,29.98
2017-09-23T03:24:15.155Z,30.48
2017-09-23T03:25:21.253Z,30.00
2017-09-23T03:26:27.399Z,31.52
2017-09-23T03:27:33.543Z,29.83
2017-09-23T03:28:41.478Z,30.25
2017-09-23T03:29:49.957Z,27.85
2017-09-23T03:30:56.731Z,29.48
2017-09-23T03:32:04.735Z,30.70
2017-09-23T03:33:11.176Z,32.13
2017-09-23T03:34:17.396Z,29.30
2017-09-23T03:35:23.541Z,30.62
2017-09-23T03:36:29.607Z,31.08
2017-09-23T03:37:35.675Z,32.17
2017-09-23T03:38:41.565Z,30.92
2017-09-23T03:39:47.645Z,31.62
2017-09-23T03:40:53.747Z,30.08
2017-09-23T03:41:59.640Z,30.33
2017-09-23T03:43:05.531Z,29.58
2017-09-23T03:44:11.648Z,32.55
2017-09-23T03:45:17.756Z,31.05
2017-09-23T03:46:23.881Z,30.50
2017-09-23T03:47:29.958Z,32.90
2017-09-23T03:48:36.037Z,31.92
2017-09-23T03:49:41.944Z,32.35
2017-09-23T03:50:48.058Z,32.35
2017-09-23T03:51:54.201Z,31.33
2017-09-23T03:53:00.308Z,32.20
2017-09-23T03:54:06.391Z,31.77
2017-09-23T03:55:12.550Z,33.13
2017-09-23T03:56:18.671Z,31.23
2017-09-23T03:57:24.819Z,34.17
2017-09-23T03:58:30.903Z,35.45
2017-09-23T03:59:36.991Z,34.47
2017-09-23T04:00:43.067Z,33.35
2017-09-23T04:01:48.943Z,33.13
2017-09-23T04:02:55.077Z,32.63
2017-09-23T04:04:01.137Z,31.05
2017-09-23T04:05:07.324Z,30.52
2017-09-23T04:06:13.459Z,30.02
2017-09-23T04:07:19.618Z,29.85
2017-09-23T04:08:25.891Z,28.77
2017-09-23T04:09:31.995Z,29.37
2017-09-23T04:10:38.276Z,31.00
2017-09-23T04:11:44.384Z,30.20
2017-09-23T04:12:50.437Z,30.20
2017-09-23T04:13:56.522Z,28.12
2017-09-23T04:15:02.607Z,29.25
2017-09-23T04:16:08.727Z,28.15
2017-09-23T04:17:14.622Z,25.90
2017-09-23T04:18:20.754Z,28.35
2017-09-23T04:19:26.913Z,28.25
2017-09-23T04:20:32.991Z,31.70
2017-09-23T04:21:39.476Z,29.17
2017-09-23T04:22:45.551Z,31.30
2017-09-23T04:23:51.667Z,31.17
2017-09-23T04:24:57.743Z,32.83
2017-09-23T04:26:04.043Z,34.10
2017-09-23T04:27:10.138Z,30.45
2017-09-23T04:28:16.334Z,29.70
2017-09-23T04:29:22.544Z,30.00
2017-09-23T04:30:28.326Z,30.48
2017-09-23T04:31:34.599Z,27.02
2017-09-23T04:32:40.705Z,28.67
2017-09-23T04:33:46.808Z,28.95
2017-09-23T04:34:53.097Z,30.12
2017-09-23T04:35:59.167Z,30.27
2017-09-23T04:37:05.254Z,28.92
2017-09-23T04:38:11.370Z,27.23
2017-09-23T04:39:17.526Z,30.52
2017-09-23T04:40:23.687Z,27.58
2017-09-23T04:41:30.606Z,27.45
2017-09-23T04:42:36.738Z,26.73
2017-09-23T04:43:43.085Z,28.45
2017-09-23T04:44:49.183Z,29.20
2017-09-23T04:45:55.322Z,30.85
2017-09-23T04:47:01.486Z,30.40
2017-09-23T04:48:07.937Z,29.90
2017-09-23T04:49:14.584Z,30.73
2017-09-23T04:50:21.693Z,30.30
2017-09-23T04:51:31.186Z,32.78
2017-09-23T04:52:37.522Z,34.80
2017-09-23T04:53:43.603Z,29.80
2017-09-23T04:54:50.060Z,29.60
2017-09-23T04:55:56.391Z,30.58
2017-09-23T04:57:03.378Z,30.05
2017-09-23T04:58:09.661Z,31.30
2017-09-23T04:59:15.752Z,28.67
2017-09-23T05:00:21.860Z,28.77
2017-09-23T05:01:27.993Z,30.45
2017-09-23T05:02:34.072Z,30.15
2017-09-23T05:03:42.062Z,29.48
2017-09-23T05:04:48.161Z,30.10
2017-09-23T05:05:54.820Z,29.87
2017-09-23T05:07:00.949Z,28.95
2017-09-23T05:08:07.014Z,28.90
2017-09-23T05:09:13.106Z,27.83
2017-09-23T05:10:19.203Z,27.02
2017-09-23T05:11:25.289Z,26.17
2017-09-23T05:12:31.394Z,25.67
2017-09-23T05:13:37.473Z,26.98
2017-09-23T05:14:43.658Z,24.65
2017-09-23T05:15:49.748Z,25.00
2017-09-23T05:16:55.827Z,25.45
2017-09-23T05:18:01.922Z,27.13
2017-09-23T05:19:07.999Z,25.67
2017-09-23T05:20:14.080Z,27.50
2017-09-23T05:21:20.171Z,28.42
2017-09-23T05:22:26.310Z,27.10
2017-09-23T05:23:32.447Z,30.00
2017-09-23T05:24:38.561Z,28.87
2017-09-23T05:25:44.665Z,30.30
2017-09-23T05:26:50.551Z,32.28
2017-09-23T05:27:56.672Z,32.35
2017-09-23T05:29:02.819Z,30.83
2017-09-23T05:30:08.918Z,32.67
2017-09-23T05:31:15.023Z,32.20
2017-09-23T05:32:21.157Z,31.30
2017-09-23T05:33:27.240Z,34.75
2017-09-23T05:34:33.542Z,34.55
2017-09-23T05:35:39.630Z,35.80
2017-09-23T05:36:45.912Z,36.38
2017-09-23T05:37:52.056Z,37.55
2017-09-23T05:38:58.065Z,33.28
2017-09-23T05:40:04.187Z,36.00
2017-09-23T05:41:10.248Z,36.85
2017-09-23T05:42:16.350Z,37.28
2017-09-23T05:43:22.548Z,38.78
2017-09-23T05:44:28.763Z,34.00
2017-09-23T05:45:35.095Z,32.92
2017-09-23T05:46:41.171Z,31.92
2017-09-23T05:47:47.251Z,30.17
2017-09-23T05:48:53.400Z,28.05
2017-09-23T05:50:00.474Z,27.67
2017-09-23T05:51:07.026Z,29.37
2017-09-23T05:52:12.937Z,31.30
2017-09-23T05:53:19.124Z,32.28
2017-09-23T05:54:25.654Z,35.70
2017-09-23T05:55:31.842Z,38.03
2017-09-23T05:56:38.047Z,37.38
2017-09-23T05:57:44.666Z,35.50
2017-09-23T05:58:51.238Z,36.88
2017-09-23T05:59:57.318Z,33.80
2017-09-23T06:01:03.874Z,33.85
2017-09-23T06:02:09.964Z,34.67
2017-09-23T06:03:15.837Z,34.45
2017-09-23T06:04:21.979Z,31.58
2017-09-23T06:05:28.267Z,33.53
2017-09-23T06:06:34.194Z,36.85
2017-09-23T06:07:40.290Z,37.35
2017-09-23T06:08:46.370Z,38.72
2017-09-23T06:09:52.559Z,34.05
2017-09-23T06:10:58.813Z,36.30
2017-09-23T06:12:04.907Z,35.50
2017-09-23T06:13:10.990Z,35.20
2017-09-23T06:14:17.086Z,34.10
2017-09-23T06:15:23.151Z,34.78
2017-09-23T06:16:29.202Z,33.80
2017-09-23T06:17:35.343Z,33.35
2017-09-23T06:18:41.418Z,35.17
2017-09-23T06:19:47.491Z,36.20
2017-09-23T06:20:54.435Z,35.22
2017-09-23T06:22:00.567Z,37.58
2017-09-23T06:23:06.660Z,37.15
2017-09-23T06:24:12.755Z,37.47
2017-09-23T06:25:18.910Z,35.88
2017-09-23T06:26:25.567Z,34.17
2017-09-23T06:27:31.962Z,36.28
2017-09-23T06:28:37.851Z,35.80
2017-09-23T06:29:44.481Z,34.42
2017-09-23T06:30:53.181Z,36.28
2017-09-23T06:32:00.494Z,37.47
2017-09-23T06:33:07.645Z,35.78
2017-09-23T06:34:14.280Z,35.05
2017-09-23T06:35:20.414Z,33.47
2017-09-23T06:36:26.582Z,33.80
2017-09-23T06:37:32.627Z,34.30
2017-09-23T06:38:39.915Z,35.55
2017-09-23T06:39:46.034Z,33.63
2017-09-23T06:40:52.107Z,34.22
2017-09-23T06:41:58.174Z,34.17
2017-09-23T06:43:04.237Z,35.63
2017-09-23T06:44:10.327Z,32.58
2017-09-23T06:45:16.398Z,33.40
2017-09-23T06:46:22.494Z,33.10
2017-09-23T06:47:30.227Z,36.00
2017-09-23T06:48:37.263Z,35.78
2017-09-23T06:49:44.201Z,36.42
2017-09-23T06:50:51.036Z,33.75
2017-09-23T06:51:58.145Z,35.13
2017-09-23T06:53:06.576Z,36.83
2017-09-23T06:54:13.317Z,39.70
2017-09-23T06:55:29.216Z,34.67
2017-09-23T06:56:54.153Z,36.38
2017-09-23T06:58:20.236Z,36.40
2017-09-23T06:59:28.045Z,36.75
2017-09-23T07:00:34.960Z,34.65
2017-09-23T07:01:41.043Z,36.25
2017-09-23T07:02:47.165Z,32.88
2017-09-23T07:03:54.172Z,37.55
2017-09-23T07:05:00.769Z,33.97
2017-09-23T07:06:07.312Z,36.05
2017-09-23T07:07:13.719Z,36.80
2017-09-23T07:08:20.883Z,35.50
2017-09-23T07:09:27.195Z,34.78
2017-09-23T07:10:33.329Z,35.97
2017-09-23T07:11:39.519Z,35.28
2017-09-23T07:12:46.754Z,34.20
2017-09-23T07:13:52.823Z,34.10
2017-09-23T07:14:59.315Z,32.60
2017-09-23T07:16:05.644Z,33.53
2017-09-23T07:17:13.059Z,32.03
2017-09-23T07:18:19.902Z,34.47
2017-09-23T07:19:26.939Z,33.20
2017-09-23T07:20:33.017Z,35.80
2017-09-23T07:21:42.335Z,37.28
2017-09-23T07:22:55.367Z,34.97
2017-09-23T07:24:09.339Z,37.13
2017-09-23T07:25:21.154Z,36.75
2017-09-23T07:26:27.573Z,39.45
2017-09-23T07:27:33.929Z,39.53
2017-09-23T07:28:41.322Z,37.65
2017-09-23T07:29:47.877Z,39.17
2017-09-23T07:30:53.975Z,35.67
2017-09-23T07:32:00.002Z,35.47
2017-09-23T07:33:06.087Z,35.30
2017-09-23T07:34:13.658Z,36.08
2017-09-23T07:35:20.599Z,34.85
2017-09-23T07:36:26.802Z,33.92
2017-09-23T07:37:33.098Z,38.20
2017-09-23T07:38:39.317Z,37.08
2017-09-23T07:39:45.312Z,36.55
2017-09-23T07:40:51.420Z,40.85
2017-09-23T07:41:58.139Z,36.38
2017-09-23T07:43:04.296Z,34.78
2017-09-23T07:44:11.705Z,34.20
2017-09-23T07:45:17.787Z,35.55
2017-09-23T07:46:24.690Z,35.15
2017-09-23T07:47:30.789Z,35.53
2017-09-23T07:48:36.918Z,35.80
2017-09-23T07:49:43.109Z,35.22
2017-09-23T07:50:50.036Z,36.33
2017-09-23T07:51:56.124Z,36.53
2017-09-23T07:53:02.584Z,37.17
2017-09-23T07:54:09.211Z,33.92
2017-09-23T07:55:15.355Z,36.60
2017-09-23T07:56:21.565Z,35.78
2017-09-23T07:57:27.510Z,36.90
2017-09-23T07:58:33.725Z,36.85
2017-09-23T07:59:39.910Z,36.53
2017-09-23T08:00:46.043Z,36.33
2017-09-23T08:01:55.279Z,38.50
2017-09-23T08:03:01.503Z,39.60
2017-09-23T08:04:07.910Z,39.47
2017-09-23T08:05:14.505Z,36.97
2017-09-23T08:06:21.551Z,36.47
2017-09-23T08:07:28.782Z,35.83
2017-09-23T08:08:35.457Z,36.70
2017-09-23T08:09:42.380Z,40.22
2017-09-23T08:10:49.456Z,36.25
2017-09-23T08:11:57.792Z,35.15
2017-09-23T08:13:06.642Z,36.38
2017-09-23T08:14:13.973Z,35.92
2017-09-23T08:15:21.652Z,36.42
2017-09-23T08:16:28.597Z,34.78
2017-09-23T08:17:36.469Z,37.70
2017-09-23T08:18:45.456Z,38.00
2017-09-23T08:19:55.616Z,36.53
2017-09-23T08:21:04.102Z,38.67
2017-09-23T08:22:12.182Z,38.65
2017-09-23T08:23:21.002Z,37.88
2017-09-23T08:24:29.322Z,37.58
2017-09-23T08:25:38.689Z,39.63
2017-09-23T08:26:47.950Z,40.90
2017-09-23T08:27:56.428Z,38.45
2017-09-23T08:29:04.602Z,37.22
2017-09-23T08:30:13.365Z,38.40
2017-09-23T08:31:21.596Z,37.72
2017-09-23T08:32:27.740Z,37.80
2017-09-23T08:33:34.412Z,37.90
2017-09-23T08:34:40.853Z,39.90
2017-09-23T08:35:47.942Z,38.53
2017-09-23T08:36:54.801Z,39.05
2017-09-23T08:38:02.456Z,37.10
2017-09-23T08:39:11.872Z,38.13
2017-09-23T08:40:18.671Z,37.85
2017-09-23T08:41:25.242Z,39.30
2017-09-23T08:42:31.742Z,40.83
2017-09-23T08:43:39.175Z,40.45
2017-09-23T08:44:45.434Z,40.12
2017-09-23T08:45:52.430Z,41.80
2017-09-23T08:46:59.925Z,38.80
2017-09-23T08:48:08.739Z,39.85
2017-09-23T08:49:15.573Z,40.50
2017-09-23T08:50:21.674Z,42.88
2017-09-23T08:51:28.165Z,42.33
2017-09-23T08:52:35.458Z,41.92
2017-09-23T08:53:42.024Z,42.08
2017-09-23T08:54:49.381Z,40.67
2017-09-23T08:55:56.003Z,41.70
2017-09-23T08:57:04.918Z,38.65
2017-09-23T08:58:11.966Z,38.22
2017-09-23T08:59:18.123Z,39.88
2017-09-23T09:00:24.829Z,39.42
2017-09-23T09:01:32.366Z,37.78
2017-09-23T09:02:38.466Z,37.67
2017-09-23T09:03:44.637Z,39.30
2017-09-23T09:04:53.527Z,37.92
2017-09-23T09:06:00.252Z,39.40
2017-09-23T09:07:06.511Z,39.80
2017-09-23T09:08:13.234Z,40.30
2017-09-23T09:09:19.328Z,39.83
2017-09-23T09:10:26.407Z,37.72
2017-09-23T09:11:33.703Z,38.40
2017-09-23T09:12:44.463Z,38.90
2017-09-23T09:13:51.259Z,36.25
2017-09-23T09:14:57.622Z,37.97
2017-09-23T09:16:04.959Z,36.72
2017-09-23T09:17:11.729Z,36.75
2017-09-23T09:18:21.794Z,38.17
2017-09-23T09:19:28.571Z,38.25
2017-09-23T09:20:35.043Z,37.20
2017-09-23T09:21:41.890Z,36.55
2017-09-23T09:22:48.563Z,37.20
2017-09-23T09:23:55.184Z,37.35
2017-09-23T09:25:01.767Z,35.35
2017-09-23T09:26:09.347Z,37.95
2017-09-23T09:27:17.112Z,34.75
2017-09-23T09:28:25.672Z,33.97
2017-09-23T09:29:32.090Z,36.92
2017-09-23T09:30:39.910Z,37.35
2017-09-23T09:31:46.527Z,36.67
2017-09-23T09:32:52.682Z,35.20
2017-09-23T09:33:59.179Z,36.20
2017-09-23T09:35:05.465Z,35.78
2017-09-23T09:36:11.778Z,34.83
2017-09-23T09:37:19.379Z,35.42
2017-09-23T09:38:26.295Z,37.80
2017-09-23T09:39:32.378Z,34.83
2017-09-23T09:40:38.942Z,35.92
2017-09-23T09:41:45.149Z,35.30
2017-09-23T09:42:52.671Z,38.00
2017-09-23T09:44:00.652Z,38.13
2017-09-23T09:45:07.340Z,36.30
2017-09-23T09:46:13.765Z,36.90
2017-09-23T09:47:19.986Z,35.33
2017-09-23T09:48:26.911Z,33.00
2017-09-23T09:49:34.184Z,32.05
2017-09-23T09:50:42.147Z,33.05
2017-09-23T09:51:50.157Z,34.03
2017-09-23T09:52:57.704Z,36.15
2017-09-23T09:54:04.969Z,36.95
2017-09-23T09:55:12.038Z,34.83
2017-09-23T09:56:18.719Z,35.92
2017-09-23T09:57:27.966Z,35.38
2017-09-23T09:58:35.621Z,33.45
2017-09-23T09:59:42.967Z,34.00
2017-09-23T10:00:50.534Z,30.75
2017-09-23T10:02:00.609Z,32.05
2017-09-23T10:03:06.889Z,31.87
2017-09-23T10:04:14.264Z,32.85
2017-09-23T10:05:21.787Z,30.52
2017-09-23T10:06:28.592Z,32.88
2017-09-23T10:07:36.441Z,32.70
2017-09-23T10:08:44.172Z,33.03
2017-09-23T10:09:52.421Z,32.70
2017-09-23T10:10:59.516Z,29.87
2017-09-23T10:12:08.538Z,31.77
2017-09-23T10:13:17.483Z,29.65
2017-09-23T10:14:24.725Z,30.27
2017-09-23T10:15:32.967Z,27.50
2017-09-23T10:16:40.201Z,29.05
2017-09-23T10:17:46.791Z,28.65
2017-09-23T10:18:53.916Z,32.70
2017-09-23T10:20:02.747Z,31.60
2017-09-23T10:21:10.636Z,29.65
2017-09-23T10:22:17.870Z,29.25
2017-09-23T10:23:25.458Z,31.27
2017-09-23T10:24:32.431Z,31.27
2017-09-23T10:25:39.467Z,30.80
2017-09-23T10:26:46.787Z,29.42
2017-09-23T10:27:54.125Z,31.55
2017-09-23T10:29:02.785Z,33.78
2017-09-23T10:30:10.392Z,31.42
2017-09-23T10:31:20.114Z,30.88
2017-09-23T10:32:27.942Z,30.55
2017-09-23T10:33:36.749Z,29.63
2017-09-23T10:34:45.310Z,28.55
2017-09-23T10:35:51.377Z,29.33
2017-09-23T10:36:57.572Z,29.83
2017-09-23T10:38:03.894Z,31.77
2017-09-23T10:39:10.311Z,33.28
2017-09-23T10:40:16.510Z,33.15
2017-09-23T10:41:22.724Z,32.33
2017-09-23T10:42:30.209Z,31.92
2017-09-23T10:43:38.522Z,33.00
2017-09-23T10:44:45.300Z,31.87
2017-09-23T10:45:51.555Z,31.98
2017-09-23T10:47:01.642Z,31.70
2017-09-23T10:48:08.937Z,32.30
2017-09-23T10:49:16.307Z,30.30
2017-09-23T10:50:24.579Z,29.85
2017-09-23T10:51:31.610Z,30.80
2017-09-23T10:52:39.392Z,30.42
2017-09-23T10:53:46.768Z,29.65
2017-09-23T10:54:55.321Z,28.60
2017-09-23T10:56:03.686Z,30.00
2017-09-23T10:57:11.169Z,29.65
2017-09-23T10:58:18.873Z,30.83
2017-09-23T10:59:27.189Z,30.42
2017-09-23T11:00:35.487Z,29.80
2017-09-23T11:01:43.077Z,31.42
2017-09-23T11:02:51.200Z,30.10
2017-09-23T11:03:59.756Z,30.20
2017-09-23T11:05:06.852Z,30.58
2017-09-23T11:06:16.232Z,32.58
2017-09-23T11:07:23.697Z,30.65
2017-09-23T11:08:31.113Z,32.72
2017-09-23T11:09:40.100Z,29.33
2017-09-23T11:10:47.101Z,29.35
2017-09-23T11:11:55.012Z,29.17
2017-09-23T11:13:04.175Z,25.85
2017-09-23T11:14:10.727Z,22.25
2017-09-23T11:15:16.856Z,21.05
2017-09-23T11:16:24.753Z,22.50
2017-09-23T11:17:33.808Z,21.83
2017-09-23T11:18:40.604Z,21.25
2017-09-23T11:19:48.125Z,21.62
2017-09-23T11:20:55.066Z,18.85
2017-09-23T11:22:02.347Z,17.77
2017-09-23T11:23:08.473Z,18.27
2017-09-23T11:24:14.732Z,15.93
2017-09-23T11:25:22.842Z,16.85
2017-09-23T11:26:30.713Z,17.70
2017-09-23T11:27:37.334Z,15.98
2017-09-23T11:28:44.406Z,15.10
2017-09-23T11:29:50.992Z,14.50
2017-09-23T11:30:57.520Z,12.98
2017-09-23T11:32:05.129Z,11.48
2017-09-23T11:33:12.106Z,11.45
2017-09-23T11:34:19.867Z,10.77
2017-09-23T11:35:26.618Z,10.30
2017-09-23T11:36:33.749Z,11.38
2017-09-23T11:37:41.560Z,11.12
2017-09-23T11:38:48.601Z,9.45
2017-09-23T11:39:55.110Z,10.13
2017-09-23T11:41:02.265Z,10.82
2017-09-23T11:42:09.055Z,11.10
2017-09-23T11:43:16.406Z,11.32
2017-09-23T11:44:24.540Z,10.50
2017-09-23T11:45:31.948Z,9.65
2017-09-23T11:46:41.409Z,10.23
2017-09-23T11:47:49.120Z,10.82
2017-09-23T11:48:56.016Z,10.02
2017-09-23T11:50:02.525Z,9.38
2017-09-23T11:51:09.843Z,8.85
2017-09-23T11:52:16.424Z,9.50
2017-09-23T11:53:23.266Z,8.55
2017-09-23T11:54:30.986Z,8.40
2017-09-23T11:55:38.662Z,7.68
2017-09-23T11:56:46.715Z,7.80
2017-09-23T11:57:54.055Z,8.23
2017-09-23T11:59:00.769Z,9.45
2017-09-23T12:00:07.888Z,8.48
2017-09-23T12:01:14.765Z,10.45
2017-09-23T12:02:21.066Z,10.13
2017-09-23T12:03:27.810Z,10.35
2017-09-23T12:04:34.824Z,10.43
2017-09-23T12:05:43.145Z,11.77
2017-09-23T12:06:50.649Z,10.93
2017-09-23T12:07:58.496Z,11.93
2017-09-23T12:09:05.362Z,11.65
2017-09-23T12:10:12.694Z,10.90
2017-09-23T12:11:19.862Z,12.70
2017-09-23T12:12:27.575Z,10.55
2017-09-23T12:13:35.921Z,11.93
2017-09-23T12:14:45.401Z,9.77
2017-09-23T12:15:52.717Z,10.02
2017-09-23T12:17:00.273Z,9.20
2017-09-23T12:18:08.799Z,9.20
2017-09-23T12:19:16.282Z,9.15
2017-09-23T12:20:23.441Z,7.50
2017-09-23T12:21:30.665Z,8.73
2017-09-23T12:22:37.965Z,8.48
2017-09-23T12:23:45.532Z,8.30
2017-09-23T12:24:53.706Z,8.45
2017-09-23T12:26:01.946Z,9.05
2017-09-23T12:27:08.625Z,8.07
2017-09-23T12:28:14.900Z,7.82
2017-09-23T12:30:44.992Z,8.50
2017-09-23T12:31:52.720Z,8.85
2017-09-23T12:33:01.490Z,8.98
2017-09-23T12:34:10.316Z,12.45
2017-09-23T12:35:18.166Z,9.75
2017-09-23T12:36:25.819Z,7.47
2017-09-23T12:37:33.101Z,8.10
2017-09-23T12:38:40.936Z,7.25
2017-09-23T12:39:47.726Z,7.82
2017-09-23T12:40:54.734Z,6.70
2017-09-23T12:42:02.235Z,6.43
2017-09-23T12:43:09.745Z,7.75
2017-09-23T12:44:17.573Z,8.18
2017-09-23T12:45:25.372Z,8.10
2017-09-23T12:46:33.917Z,8.48
2017-09-23T12:47:40.894Z,7.82
2017-09-23T12:48:48.423Z,8.48
2017-09-23T12:49:55.912Z,8.43
2017-09-23T12:51:04.018Z,9.43
2017-09-23T12:52:12.631Z,7.65
2017-09-23T12:53:20.404Z,8.60
2017-09-23T12:54:27.806Z,9.93
2017-09-23T12:55:36.725Z,9.20
2017-09-23T12:56:43.352Z,9.43
2017-09-23T12:57:50.862Z,8.23
2017-09-23T12:58:58.010Z,8.23
2017-09-23T13:00:05.226Z,9.68
2017-09-23T13:01:12.488Z,10.27
2017-09-23T13:02:20.081Z,9.75
2017-09-23T13:03:29.281Z,8.45
2017-09-23T13:04:36.641Z,9.45
2017-09-23T13:05:44.107Z,9.88
2017-09-23T13:06:51.460Z,9.77
2017-09-23T13:07:58.550Z,8.80
2017-09-23T13:09:05.816Z,9.20
2017-09-23T13:10:14.018Z,9.38
2017-09-23T13:11:21.451Z,8.88
2017-09-23T13:12:28.794Z,9.80
2017-09-23T13:13:36.845Z,9.63
2017-09-23T13:14:45.089Z,9.13
2017-09-23T13:15:52.199Z,8.48
2017-09-23T13:16:58.918Z,8.40
2017-09-23T13:18:06.143Z,7.70
2017-09-23T13:19:16.227Z,8.48
2017-09-23T13:20:25.732Z,8.77
2017-09-23T13:21:37.316Z,9.10
2017-09-23T13:22:49.554Z,8.32
2017-09-23T13:23:57.507Z,7.80
2017-09-23T13:25:05.740Z,8.38
2017-09-23T13:26:13.004Z,8.00
2017-09-23T13:27:20.983Z,7.18
2017-09-23T13:28:29.348Z,7.25
2017-09-23T13:29:36.107Z,7.85
2017-09-23T13:30:43.271Z,9.02
2017-09-23T13:31:50.648Z,7.70
2017-09-23T13:32:58.109Z,8.20
2017-09-23T13:34:06.367Z,8.63
2017-09-23T13:35:13.705Z,9.00
2017-09-23T13:36:20.883Z,7.75
2017-09-23T13:37:28.025Z,8.75
2017-09-23T13:38:35.742Z,7.68
2017-09-23T13:39:44.090Z,7.45
2017-09-23T13:40:52.661Z,7.45
2017-09-23T13:41:59.935Z,6.90
2017-09-23T13:43:07.092Z,8.02
2017-09-23T13:44:14.349Z,8.57
2017-09-23T13:45:23.439Z,7.97
2017-09-23T13:46:31.612Z,7.10
2017-09-23T13:47:39.283Z,7.78
2017-09-23T13:48:49.474Z,7.65
2017-09-23T13:49:56.964Z,6.75
2017-09-23T13:51:03.647Z,6.95
2017-09-23T13:52:10.505Z,7.37
2017-09-23T13:53:17.768Z,6.85
2017-09-23T13:54:24.851Z,5.93
2017-09-23T13:55:32.126Z,5.25
2017-09-23T13:56:39.119Z,6.30
2017-09-23T13:57:47.469Z,6.80
2017-09-23T13:58:54.123Z,7.15
2017-09-23T14:00:01.474Z,6.25
2017-09-23T14:01:08.552Z,6.15
2017-09-23T14:02:15.289Z,6.37
2017-09-23T14:03:22.118Z,6.30
2017-09-23T14:04:30.334Z,6.47
2017-09-23T14:05:38.205Z,6.85
2017-09-23T14:06:44.298Z,6.40
2017-09-23T14:07:50.879Z,6.72
2017-09-23T14:08:59.647Z,6.35
2017-09-23T14:10:10.103Z,6.18
2017-09-23T14:11:17.950Z,6.18
2017-09-23T14:12:24.514Z,5.72
2017-09-23T14:13:31.615Z,6.20
2017-09-23T14:14:38.352Z,5.72
2017-09-23T14:15:45.393Z,6.32
2017-09-23T14:16:52.033Z,6.40
2017-09-23T14:17:58.936Z,6.47
2017-09-23T14:19:06.030Z,6.95
2017-09-23T14:20:14.015Z,6.90
2017-09-23T14:21:21.123Z,6.47
2017-09-23T14:22:28.134Z,6.50
2017-09-23T14:23:34.762Z,6.25
2017-09-23T14:24:42.044Z,5.53
2017-09-23T14:25:48.980Z,5.25
2017-09-23T14:26:57.477Z,5.90